sensor_id;sensor_type;location;lat;lon;timestamp;P1;P2;P0
62631;PMS5003;48703;51.248;-0.546;2023-05-07T00:01:21;9.91;9.51;
62631;PMS5003;48703;51.248;-0.546;2023-05-07T00:04:22;11.54;10.75;
62631;PMS5003;48703;51.248;-0.546;2023-05-07T00:07:23;9.27;9.07;
62631;PMS5003;48703;51.248;-0.546;2023-05-07T00:10:25;9.51;8.79;
62631;PMS5003;48703;51.248;-0.546;2023-05-07T00:13:26;15.19;12.78;
62631;PMS5003;48703;51.248;-0.546;2023-05-07T00:16:28;12.87;11.90;
62631;PMS5003;48703;51.248;-0.546;2023-05-07T00:19:30;10.70;10.49;
62631;PMS5003;48703;51.248;-0.546;2023-05-07T00:22:32;14.10;13.26;
62631;PMS5003;48703;51.248;-0.546;2023-05-07T00:25:33;13.21;12.04;
62631;PMS5003;48703;51.248;-0.546;2023-05-07T00:28:35;18.46;15.46;
62631;PMS5003;48703;51.248;-0.546;2023-05-07T00:31:36;16.25;14.13;
62631;PMS5003;48703;51.248;-0.546;2023-05-07T00:34:38;17.47;15.21;
62631;PMS5003;48703;51.248;-0.546;2023-05-07T00:37:39;17.91;15.77;
62631;PMS5003;48703;51.248;-0.546;2023-05-07T00:40:40;16.76;14.40;
62631;PMS5003;48703;51.248;-0.546;2023-05-07T00:43:42;20.11;17.76;
62631;PMS5003;48703;51.248;-0.546;2023-05-07T00:46:43;16.56;15.84;
62631;PMS5003;48703;51.248;-0.546;2023-05-07T00:49:45;17.87;16.16;
62631;PMS5003;48703;51.248;-0.546;2023-05-07T00:52:46;19.19;16.78;
62631;PMS5003;48703;51.248;-0.546;2023-05-07T00:55:47;18.64;17.17;
62631;PMS5003;48703;51.248;-0.546;2023-05-07T00:58:49;19.21;15.97;
62631;PMS5003;48703;51.248;-0.546;2023-05-07T01:01:51;17.57;15.94;
62631;PMS5003;48703;51.248;-0.546;2023-05-07T01:04:52;17.76;15.79;
62631;PMS5003;48703;51.248;-0.546;2023-05-07T01:07:53;21.12;18.06;
62631;PMS5003;48703;51.248;-0.546;2023-05-07T01:10:54;19.17;16.83;
62631;PMS5003;48703;51.248;-0.546;2023-05-07T01:13:55;20.86;17.51;
62631;PMS5003;48703;51.248;-0.546;2023-05-07T01:16:56;17.66;16.56;
62631;PMS5003;48703;51.248;-0.546;2023-05-07T01:19:58;22.51;20.04;
62631;PMS5003;48703;51.248;-0.546;2023-05-07T01:22:59;20.17;17.01;
62631;PMS5003;48703;51.248;-0.546;2023-05-07T01:26:01;21.01;16.90;
62631;PMS5003;48703;51.248;-0.546;2023-05-07T01:29:02;17.42;16.33;
62631;PMS5003;48703;51.248;-0.546;2023-05-07T01:32:03;15.89;13.04;
62631;PMS5003;48703;51.248;-0.546;2023-05-07T01:35:05;16.07;14.80;
62631;PMS5003;48703;51.248;-0.546;2023-05-07T01:38:06;18.24;15.91;
62631;PMS5003;48703;51.248;-0.546;2023-05-07T01:41:07;18.17;17.03;
62631;PMS5003;48703;51.248;-0.546;2023-05-07T01:44:08;17.64;14.49;
62631;PMS5003;48703;51.248;-0.546;2023-05-07T01:47:09;16.56;14.31;
62631;PMS5003;48703;51.248;-0.546;2023-05-07T01:50:10;12.66;12.43;
62631;PMS5003;48703;51.248;-0.546;2023-05-07T01:53:11;16.91;15.48;
62631;PMS5003;48703;51.248;-0.546;2023-05-07T01:56:12;15.06;13.07;
62631;PMS5003;48703;51.248;-0.546;2023-05-07T01:59:14;15.23;13.71;
62631;PMS5003;48703;51.248;-0.546;2023-05-07T02:02:15;15.31;13.20;
62631;PMS5003;48703;51.248;-0.546;2023-05-07T02:05:17;14.70;13.43;
62631;PMS5003;48703;51.248;-0.546;2023-05-07T02:08:18;14.78;13.28;
62631;PMS5003;48703;51.248;-0.546;2023-05-07T02:11:19;16.73;14.16;
62631;PMS5003;48703;51.248;-0.546;2023-05-07T02:14:21;13.64;12.16;
62631;PMS5003;48703;51.248;-0.546;2023-05-07T02:17:22;16.51;14.67;
62631;PMS5003;48703;51.248;-0.546;2023-05-07T02:20:24;15.94;15.35;
62631;PMS5003;48703;51.248;-0.546;2023-05-07T02:23:25;16.89;15.33;
62631;PMS5003;48703;51.248;-0.546;2023-05-07T02:26:27;15.67;14.41;
62631;PMS5003;48703;51.248;-0.546;2023-05-07T02:29:29;15.74;12.50;
62631;PMS5003;48703;51.248;-0.546;2023-05-07T02:32:30;13.91;11.97;
62631;PMS5003;48703;51.248;-0.546;2023-05-07T02:35:31;14.91;12.61;
62631;PMS5003;48703;51.248;-0.546;2023-05-07T02:38:32;13.40;12.57;
62631;PMS5003;48703;51.248;-0.546;2023-05-07T02:41:34;10.79;9.23;
62631;PMS5003;48703;51.248;-0.546;2023-05-07T02:44:35;9.06;8.31;
62631;PMS5003;48703;51.248;-0.546;2023-05-07T02:47:36;13.44;11.29;
62631;PMS5003;48703;51.248;-0.546;2023-05-07T02:50:37;15.16;11.89;
62631;PMS5003;48703;51.248;-0.546;2023-05-07T02:53:39;12.21;10.57;
62631;PMS5003;48703;51.248;-0.546;2023-05-07T02:56:40;14.90;14.19;
62631;PMS5003;48703;51.248;-0.546;2023-05-07T02:59:42;12.53;11.36;
62631;PMS5003;48703;51.248;-0.546;2023-05-07T03:02:43;12.27;9.81;
62631;PMS5003;48703;51.248;-0.546;2023-05-07T03:05:45;12.74;11.29;
62631;PMS5003;48703;51.248;-0.546;2023-05-07T03:08:46;12.24;11.81;
62631;PMS5003;48703;51.248;-0.546;2023-05-07T03:11:48;14.70;12.27;
62631;PMS5003;48703;51.248;-0.546;2023-05-07T03:14:49;13.27;12.31;
62631;PMS5003;48703;51.248;-0.546;2023-05-07T03:17:51;13.75;11.14;
62631;PMS5003;48703;51.248;-0.546;2023-05-07T03:20:52;11.46;10.38;
62631;PMS5003;48703;51.248;-0.546;2023-05-07T03:23:53;12.09;10.83;
62631;PMS5003;48703;51.248;-0.546;2023-05-07T03:26:55;12.39;11.31;
62631;PMS5003;48703;51.248;-0.546;2023-05-07T03:29:57;10.26;9.67;
62631;PMS5003;48703;51.248;-0.546;2023-05-07T03:32:58;10.93;10.93;
62631;PMS5003;48703;51.248;-0.546;2023-05-07T03:36:00;16.30;13.72;
62631;PMS5003;48703;51.248;-0.546;2023-05-07T03:39:01;14.33;12.73;
62631;PMS5003;48703;51.248;-0.546;2023-05-07T03:42:03;15.49;12.96;
62631;PMS5003;48703;51.248;-0.546;2023-05-07T03:45:04;13.10;12.21;
62631;PMS5003;48703;51.248;-0.546;2023-05-07T03:48:06;13.31;11.64;
62631;PMS5003;48703;51.248;-0.546;2023-05-07T03:51:07;15.26;13.20;
62631;PMS5003;48703;51.248;-0.546;2023-05-07T03:54:08;15.23;13.16;
62631;PMS5003;48703;51.248;-0.546;2023-05-07T03:57:10;16.01;12.99;
62631;PMS5003;48703;51.248;-0.546;2023-05-07T04:00:11;14.66;12.79;
62631;PMS5003;48703;51.248;-0.546;2023-05-07T04:03:12;12.96;12.27;
62631;PMS5003;48703;51.248;-0.546;2023-05-07T04:06:15;16.84;15.84;
62631;PMS5003;48703;51.248;-0.546;2023-05-07T04:09:14;15.45;14.36;
62631;PMS5003;48703;51.248;-0.546;2023-05-07T04:12:15;17.17;14.77;
62631;PMS5003;48703;51.248;-0.546;2023-05-07T04:15:17;19.43;16.06;
62631;PMS5003;48703;51.248;-0.546;2023-05-07T04:18:18;18.06;13.90;
62631;PMS5003;48703;51.248;-0.546;2023-05-07T04:21:20;17.43;15.83;
62631;PMS5003;48703;51.248;-0.546;2023-05-07T04:24:21;14.66;13.67;
62631;PMS5003;48703;51.248;-0.546;2023-05-07T04:27:23;17.87;15.24;
62631;PMS5003;48703;51.248;-0.546;2023-05-07T04:30:24;15.42;13.20;
62631;PMS5003;48703;51.248;-0.546;2023-05-07T04:33:26;15.56;12.93;
62631;PMS5003;48703;51.248;-0.546;2023-05-07T04:36:27;15.91;13.64;
62631;PMS5003;48703;51.248;-0.546;2023-05-07T04:39:28;13.94;12.87;
62631;PMS5003;48703;51.248;-0.546;2023-05-07T04:42:29;16.57;14.57;
62631;PMS5003;48703;51.248;-0.546;2023-05-07T04:45:31;18.07;15.19;
62631;PMS5003;48703;51.248;-0.546;2023-05-07T04:48:32;14.36;13.86;
62631;PMS5003;48703;51.248;-0.546;2023-05-07T04:51:33;14.34;13.31;
62631;PMS5003;48703;51.248;-0.546;2023-05-07T04:54:35;17.06;14.66;
62631;PMS5003;48703;51.248;-0.546;2023-05-07T04:57:37;15.63;14.57;
62631;PMS5003;48703;51.248;-0.546;2023-05-07T05:00:38;15.07;13.00;
62631;PMS5003;48703;51.248;-0.546;2023-05-07T05:03:40;16.87;14.28;
62631;PMS5003;48703;51.248;-0.546;2023-05-07T05:06:40;17.04;15.16;
62631;PMS5003;48703;51.248;-0.546;2023-05-07T05:09:41;16.14;13.78;
62631;PMS5003;48703;51.248;-0.546;2023-05-07T05:12:43;18.26;15.51;
62631;PMS5003;48703;51.248;-0.546;2023-05-07T05:15:44;15.97;13.29;
62631;PMS5003;48703;51.248;-0.546;2023-05-07T05:18:46;17.93;15.10;
62631;PMS5003;48703;51.248;-0.546;2023-05-07T05:21:47;17.50;15.04;
62631;PMS5003;48703;51.248;-0.546;2023-05-07T05:24:48;16.91;15.06;
62631;PMS5003;48703;51.248;-0.546;2023-05-07T05:27:50;17.20;15.78;
62631;PMS5003;48703;51.248;-0.546;2023-05-07T05:30:51;17.81;16.14;
62631;PMS5003;48703;51.248;-0.546;2023-05-07T05:33:52;17.68;15.61;
62631;PMS5003;48703;51.248;-0.546;2023-05-07T05:36:54;21.14;16.94;
62631;PMS5003;48703;51.248;-0.546;2023-05-07T05:39:55;18.84;16.11;
62631;PMS5003;48703;51.248;-0.546;2023-05-07T05:42:56;19.96;17.26;
62631;PMS5003;48703;51.248;-0.546;2023-05-07T05:45:57;17.20;16.46;
62631;PMS5003;48703;51.248;-0.546;2023-05-07T05:48:59;17.53;14.57;
62631;PMS5003;48703;51.248;-0.546;2023-05-07T05:52:01;20.16;17.04;
62631;PMS5003;48703;51.248;-0.546;2023-05-07T05:55:03;21.93;19.39;
62631;PMS5003;48703;51.248;-0.546;2023-05-07T05:58:04;17.84;16.75;
62631;PMS5003;48703;51.248;-0.546;2023-05-07T06:01:06;19.60;16.73;
62631;PMS5003;48703;51.248;-0.546;2023-05-07T06:04:07;20.55;17.57;
62631;PMS5003;48703;51.248;-0.546;2023-05-07T06:07:08;17.59;15.90;
62631;PMS5003;48703;51.248;-0.546;2023-05-07T06:10:10;20.73;16.44;
62631;PMS5003;48703;51.248;-0.546;2023-05-07T06:13:11;15.36;13.10;
62631;PMS5003;48703;51.248;-0.546;2023-05-07T06:16:12;15.81;13.80;
62631;PMS5003;48703;51.248;-0.546;2023-05-07T06:19:14;13.71;13.27;
62631;PMS5003;48703;51.248;-0.546;2023-05-07T06:22:15;15.61;13.75;
62631;PMS5003;48703;51.248;-0.546;2023-05-07T06:25:16;13.97;12.88;
62631;PMS5003;48703;51.248;-0.546;2023-05-07T06:28:17;15.52;14.07;
62631;PMS5003;48703;51.248;-0.546;2023-05-07T06:31:19;16.04;13.59;
62631;PMS5003;48703;51.248;-0.546;2023-05-07T06:34:20;15.23;12.77;
62631;PMS5003;48703;51.248;-0.546;2023-05-07T06:37:22;14.46;12.50;
62631;PMS5003;48703;51.248;-0.546;2023-05-07T06:40:23;15.26;12.91;
62631;PMS5003;48703;51.248;-0.546;2023-05-07T06:43:24;16.39;14.13;
62631;PMS5003;48703;51.248;-0.546;2023-05-07T06:46:26;16.73;14.87;
62631;PMS5003;48703;51.248;-0.546;2023-05-07T06:49:27;16.83;14.51;
62631;PMS5003;48703;51.248;-0.546;2023-05-07T06:52:28;17.91;16.00;
62631;PMS5003;48703;51.248;-0.546;2023-05-07T06:55:30;16.71;14.74;
62631;PMS5003;48703;51.248;-0.546;2023-05-07T06:58:31;17.50;13.86;
62631;PMS5003;48703;51.248;-0.546;2023-05-07T07:01:33;16.87;14.81;
62631;PMS5003;48703;51.248;-0.546;2023-05-07T07:04:34;18.18;16.40;
62631;PMS5003;48703;51.248;-0.546;2023-05-07T07:07:35;16.55;15.81;
62631;PMS5003;48703;51.248;-0.546;2023-05-07T07:10:37;15.17;12.67;
62631;PMS5003;48703;51.248;-0.546;2023-05-07T07:13:38;13.39;11.91;
62631;PMS5003;48703;51.248;-0.546;2023-05-07T07:16:39;14.10;12.04;
62631;PMS5003;48703;51.248;-0.546;2023-05-07T07:19:40;13.54;12.10;
62631;PMS5003;48703;51.248;-0.546;2023-05-07T07:22:42;14.79;11.56;
62631;PMS5003;48703;51.248;-0.546;2023-05-07T07:25:43;14.16;11.80;
62631;PMS5003;48703;51.248;-0.546;2023-05-07T07:28:45;12.97;11.11;
62631;PMS5003;48703;51.248;-0.546;2023-05-07T07:31:47;15.67;12.94;
62631;PMS5003;48703;51.248;-0.546;2023-05-07T07:34:49;13.48;12.10;
62631;PMS5003;48703;51.248;-0.546;2023-05-07T07:37:50;15.91;13.64;
62631;PMS5003;48703;51.248;-0.546;2023-05-07T07:40:51;16.26;14.17;
62631;PMS5003;48703;51.248;-0.546;2023-05-07T07:43:53;16.17;13.84;
62631;PMS5003;48703;51.248;-0.546;2023-05-07T07:46:54;18.25;15.42;
62631;PMS5003;48703;51.248;-0.546;2023-05-07T07:49:56;14.46;13.16;
62631;PMS5003;48703;51.248;-0.546;2023-05-07T07:52:57;17.51;14.75;
62631;PMS5003;48703;51.248;-0.546;2023-05-07T07:55:59;15.86;14.04;
62631;PMS5003;48703;51.248;-0.546;2023-05-07T07:59:01;20.87;17.45;
62631;PMS5003;48703;51.248;-0.546;2023-05-07T08:02:01;17.81;16.33;
62631;PMS5003;48703;51.248;-0.546;2023-05-07T08:05:04;16.00;15.09;
62631;PMS5003;48703;51.248;-0.546;2023-05-07T08:08:05;17.49;15.37;
62631;PMS5003;48703;51.248;-0.546;2023-05-07T08:11:06;13.91;12.30;
62631;PMS5003;48703;51.248;-0.546;2023-05-07T08:14:08;15.86;13.24;
62631;PMS5003;48703;51.248;-0.546;2023-05-07T08:17:09;12.66;11.57;
62631;PMS5003;48703;51.248;-0.546;2023-05-07T08:20:10;12.10;10.43;
62631;PMS5003;48703;51.248;-0.546;2023-05-07T08:23:12;11.69;10.10;
62631;PMS5003;48703;51.248;-0.546;2023-05-07T08:26:13;13.03;11.90;
62631;PMS5003;48703;51.248;-0.546;2023-05-07T08:29:14;12.75;10.83;
62631;PMS5003;48703;51.248;-0.546;2023-05-07T08:32:16;12.94;12.30;
62631;PMS5003;48703;51.248;-0.546;2023-05-07T08:35:17;13.04;11.49;
62631;PMS5003;48703;51.248;-0.546;2023-05-07T08:38:19;12.29;10.37;
62631;PMS5003;48703;51.248;-0.546;2023-05-07T08:41:20;11.10;10.50;
62631;PMS5003;48703;51.248;-0.546;2023-05-07T08:44:22;12.81;10.83;
62631;PMS5003;48703;51.248;-0.546;2023-05-07T08:47:23;12.37;11.80;
62631;PMS5003;48703;51.248;-0.546;2023-05-07T08:50:25;13.46;11.71;
62631;PMS5003;48703;51.248;-0.546;2023-05-07T08:53:26;12.64;11.66;
62631;PMS5003;48703;51.248;-0.546;2023-05-07T08:56:28;11.89;10.41;
62631;PMS5003;48703;51.248;-0.546;2023-05-07T08:59:29;11.93;10.69;
62631;PMS5003;48703;51.248;-0.546;2023-05-07T09:02:30;10.74;10.04;
62631;PMS5003;48703;51.248;-0.546;2023-05-07T09:05:32;12.17;10.26;
62631;PMS5003;48703;51.248;-0.546;2023-05-07T09:08:33;11.44;10.40;
62631;PMS5003;48703;51.248;-0.546;2023-05-07T09:11:35;11.97;11.37;
62631;PMS5003;48703;51.248;-0.546;2023-05-07T09:14:36;13.49;11.81;
62631;PMS5003;48703;51.248;-0.546;2023-05-07T09:17:38;13.87;11.83;
62631;PMS5003;48703;51.248;-0.546;2023-05-07T09:20:39;12.41;11.47;
62631;PMS5003;48703;51.248;-0.546;2023-05-07T09:23:41;12.29;10.49;
62631;PMS5003;48703;51.248;-0.546;2023-05-07T09:26:42;12.31;10.64;
62631;PMS5003;48703;51.248;-0.546;2023-05-07T09:29:44;10.66;9.80;
62631;PMS5003;48703;51.248;-0.546;2023-05-07T09:32:45;11.45;10.35;
62631;PMS5003;48703;51.248;-0.546;2023-05-07T09:35:47;11.39;10.10;
62631;PMS5003;48703;51.248;-0.546;2023-05-07T09:38:48;13.80;11.80;
62631;PMS5003;48703;51.248;-0.546;2023-05-07T09:41:49;11.74;10.65;
62631;PMS5003;48703;51.248;-0.546;2023-05-07T09:44:50;11.86;10.34;
62631;PMS5003;48703;51.248;-0.546;2023-05-07T09:47:53;11.43;10.37;
62631;PMS5003;48703;51.248;-0.546;2023-05-07T09:50:55;9.40;8.63;
62631;PMS5003;48703;51.248;-0.546;2023-05-07T09:53:56;9.89;9.26;
62631;PMS5003;48703;51.248;-0.546;2023-05-07T09:56:56;10.97;10.13;
62631;PMS5003;48703;51.248;-0.546;2023-05-07T09:59:57;10.20;9.23;
62631;PMS5003;48703;51.248;-0.546;2023-05-07T10:02:59;8.80;8.63;
62631;PMS5003;48703;51.248;-0.546;2023-05-07T10:06:00;9.59;8.69;
62631;PMS5003;48703;51.248;-0.546;2023-05-07T10:09:03;10.46;9.96;
62631;PMS5003;48703;51.248;-0.546;2023-05-07T10:12:05;9.79;9.67;
62631;PMS5003;48703;51.248;-0.546;2023-05-07T10:15:06;11.33;9.91;
62631;PMS5003;48703;51.248;-0.546;2023-05-07T10:18:07;11.44;10.24;
62631;PMS5003;48703;51.248;-0.546;2023-05-07T10:21:10;9.47;8.70;
62631;PMS5003;48703;51.248;-0.546;2023-05-07T10:24:10;9.47;8.13;
62631;PMS5003;48703;51.248;-0.546;2023-05-07T10:27:12;9.99;9.79;
62631;PMS5003;48703;51.248;-0.546;2023-05-07T10:30:15;10.39;9.59;
62631;PMS5003;48703;51.248;-0.546;2023-05-07T10:33:15;7.86;7.80;
62631;PMS5003;48703;51.248;-0.546;2023-05-07T10:36:16;8.24;7.41;
62631;PMS5003;48703;51.248;-0.546;2023-05-07T10:39:17;9.53;8.89;
62631;PMS5003;48703;51.248;-0.546;2023-05-07T10:42:19;10.27;9.96;
62631;PMS5003;48703;51.248;-0.546;2023-05-07T10:45:21;10.24;8.54;
62631;PMS5003;48703;51.248;-0.546;2023-05-07T10:48:22;9.31;8.49;
62631;PMS5003;48703;51.248;-0.546;2023-05-07T10:51:23;12.17;10.46;
62631;PMS5003;48703;51.248;-0.546;2023-05-07T10:54:25;9.89;8.89;
62631;PMS5003;48703;51.248;-0.546;2023-05-07T10:57:34;9.03;8.94;
62631;PMS5003;48703;51.248;-0.546;2023-05-07T11:00:43;8.81;7.86;
62631;PMS5003;48703;51.248;-0.546;2023-05-07T11:03:29;7.51;7.21;
62631;PMS5003;48703;51.248;-0.546;2023-05-07T11:06:31;7.79;7.44;
62631;PMS5003;48703;51.248;-0.546;2023-05-07T11:09:53;7.53;7.23;
62631;PMS5003;48703;51.248;-0.546;2023-05-07T11:12:50;8.14;7.71;
62631;PMS5003;48703;51.248;-0.546;2023-05-07T11:15:36;9.73;7.69;
62631;PMS5003;48703;51.248;-0.546;2023-05-07T11:18:53;9.60;7.31;
62631;PMS5003;48703;51.248;-0.546;2023-05-07T11:21:39;8.37;8.37;
62631;PMS5003;48703;51.248;-0.546;2023-05-07T11:24:40;7.47;7.47;
62631;PMS5003;48703;51.248;-0.546;2023-05-07T11:27:41;8.33;7.69;
62631;PMS5003;48703;51.248;-0.546;2023-05-07T11:30:42;9.00;8.17;
62631;PMS5003;48703;51.248;-0.546;2023-05-07T11:33:44;6.91;6.91;
62631;PMS5003;48703;51.248;-0.546;2023-05-07T11:36:45;8.37;7.26;
62631;PMS5003;48703;51.248;-0.546;2023-05-07T11:39:47;7.73;7.47;
62631;PMS5003;48703;51.248;-0.546;2023-05-07T11:42:49;7.40;7.09;
62631;PMS5003;48703;51.248;-0.546;2023-05-07T11:45:50;8.01;7.51;
62631;PMS5003;48703;51.248;-0.546;2023-05-07T11:48:52;9.61;8.04;
62631;PMS5003;48703;51.248;-0.546;2023-05-07T11:51:53;7.67;7.67;
62631;PMS5003;48703;51.248;-0.546;2023-05-07T11:54:55;7.51;7.20;
62631;PMS5003;48703;51.248;-0.546;2023-05-07T11:57:56;7.43;7.27;
62631;PMS5003;48703;51.248;-0.546;2023-05-07T12:00:58;8.11;8.01;
62631;PMS5003;48703;51.248;-0.546;2023-05-07T12:03:59;9.69;9.19;
62631;PMS5003;48703;51.248;-0.546;2023-05-07T12:07:01;9.34;8.40;
62631;PMS5003;48703;51.248;-0.546;2023-05-07T12:10:04;7.74;7.14;
62631;PMS5003;48703;51.248;-0.546;2023-05-07T12:13:05;8.56;7.61;
62631;PMS5003;48703;51.248;-0.546;2023-05-07T12:16:05;7.27;7.20;
62631;PMS5003;48703;51.248;-0.546;2023-05-07T12:19:07;8.07;6.27;
62631;PMS5003;48703;51.248;-0.546;2023-05-07T12:22:08;7.14;6.93;
62631;PMS5003;48703;51.248;-0.546;2023-05-07T12:25:10;7.03;6.69;
62631;PMS5003;48703;51.248;-0.546;2023-05-07T12:28:12;7.27;7.14;
62631;PMS5003;48703;51.248;-0.546;2023-05-07T12:31:13;6.19;6.19;
62631;PMS5003;48703;51.248;-0.546;2023-05-07T12:34:14;7.80;6.90;
62631;PMS5003;48703;51.248;-0.546;2023-05-07T12:37:15;6.79;6.20;
62631;PMS5003;48703;51.248;-0.546;2023-05-07T12:40:17;9.69;9.11;
62631;PMS5003;48703;51.248;-0.546;2023-05-07T12:43:19;6.04;5.84;
62631;PMS5003;48703;51.248;-0.546;2023-05-07T12:46:20;6.77;6.77;
62631;PMS5003;48703;51.248;-0.546;2023-05-07T12:49:22;6.34;5.90;
62631;PMS5003;48703;51.248;-0.546;2023-05-07T12:52:23;8.14;7.03;
62631;PMS5003;48703;51.248;-0.546;2023-05-07T12:55:24;6.49;5.97;
62631;PMS5003;48703;51.248;-0.546;2023-05-07T12:58:27;8.01;7.50;
62631;PMS5003;48703;51.248;-0.546;2023-05-07T13:01:28;7.33;6.77;
62631;PMS5003;48703;51.248;-0.546;2023-05-07T13:04:29;7.76;7.21;
62631;PMS5003;48703;51.248;-0.546;2023-05-07T13:07:30;7.21;6.71;
62631;PMS5003;48703;51.248;-0.546;2023-05-07T13:10:32;6.61;6.30;
62631;PMS5003;48703;51.248;-0.546;2023-05-07T13:13:33;7.54;6.63;
62631;PMS5003;48703;51.248;-0.546;2023-05-07T13:16:34;7.30;7.00;
62631;PMS5003;48703;51.248;-0.546;2023-05-07T13:19:36;6.67;5.83;
62631;PMS5003;48703;51.248;-0.546;2023-05-07T13:22:37;6.19;6.19;
62631;PMS5003;48703;51.248;-0.546;2023-05-07T13:25:39;6.70;5.81;
62631;PMS5003;48703;51.248;-0.546;2023-05-07T13:28:40;7.43;6.91;
62631;PMS5003;48703;51.248;-0.546;2023-05-07T13:31:41;8.86;8.17;
62631;PMS5003;48703;51.248;-0.546;2023-05-07T13:34:43;6.40;5.83;
62631;PMS5003;48703;51.248;-0.546;2023-05-07T13:37:44;7.86;7.86;
62631;PMS5003;48703;51.248;-0.546;2023-05-07T13:40:46;6.99;6.29;
62631;PMS5003;48703;51.248;-0.546;2023-05-07T13:43:47;6.86;6.34;
62631;PMS5003;48703;51.248;-0.546;2023-05-07T13:46:49;5.89;5.50;
62631;PMS5003;48703;51.248;-0.546;2023-05-07T13:49:50;6.20;5.60;
62631;PMS5003;48703;51.248;-0.546;2023-05-07T13:52:52;6.87;6.87;
62631;PMS5003;48703;51.248;-0.546;2023-05-07T13:55:53;6.33;6.33;
62631;PMS5003;48703;51.248;-0.546;2023-05-07T13:58:54;10.46;9.73;
62631;PMS5003;48703;51.248;-0.546;2023-05-07T14:01:56;7.07;7.07;
62631;PMS5003;48703;51.248;-0.546;2023-05-07T14:04:57;10.16;7.06;
62631;PMS5003;48703;51.248;-0.546;2023-05-07T14:07:59;7.13;6.90;
62631;PMS5003;48703;51.248;-0.546;2023-05-07T14:11:00;5.77;5.77;
62631;PMS5003;48703;51.248;-0.546;2023-05-07T14:14:01;5.79;5.23;
62631;PMS5003;48703;51.248;-0.546;2023-05-07T14:17:03;5.76;4.80;
62631;PMS5003;48703;51.248;-0.546;2023-05-07T14:20:05;6.45;6.45;
62631;PMS5003;48703;51.248;-0.546;2023-05-07T14:23:05;5.13;4.93;
62631;PMS5003;48703;51.248;-0.546;2023-05-07T14:26:07;4.80;4.80;
62631;PMS5003;48703;51.248;-0.546;2023-05-07T14:29:08;6.34;5.94;
62631;PMS5003;48703;51.248;-0.546;2023-05-07T14:32:10;4.81;4.81;
62631;PMS5003;48703;51.248;-0.546;2023-05-07T14:35:11;4.70;4.03;
62631;PMS5003;48703;51.248;-0.546;2023-05-07T14:38:13;5.60;5.56;
62631;PMS5003;48703;51.248;-0.546;2023-05-07T14:41:14;3.87;3.87;
62631;PMS5003;48703;51.248;-0.546;2023-05-07T14:44:15;5.01;4.21;
62631;PMS5003;48703;51.248;-0.546;2023-05-07T14:47:17;5.16;5.16;
62631;PMS5003;48703;51.248;-0.546;2023-05-07T14:50:19;5.23;4.71;
62631;PMS5003;48703;51.248;-0.546;2023-05-07T14:53:20;6.40;6.01;
62631;PMS5003;48703;51.248;-0.546;2023-05-07T14:56:22;4.94;4.81;
62631;PMS5003;48703;51.248;-0.546;2023-05-07T14:59:23;6.13;5.27;
62631;PMS5003;48703;51.248;-0.546;2023-05-07T15:02:25;4.80;4.33;
62631;PMS5003;48703;51.248;-0.546;2023-05-07T15:05:26;4.64;4.21;
62631;PMS5003;48703;51.248;-0.546;2023-05-07T15:08:28;4.47;3.80;
62631;PMS5003;48703;51.248;-0.546;2023-05-07T15:11:29;4.63;4.63;
62631;PMS5003;48703;51.248;-0.546;2023-05-07T15:14:31;4.46;4.46;
62631;PMS5003;48703;51.248;-0.546;2023-05-07T15:17:32;4.51;3.64;
62631;PMS5003;48703;51.248;-0.546;2023-05-07T15:20:33;3.40;3.40;
62631;PMS5003;48703;51.248;-0.546;2023-05-07T15:23:35;3.61;3.46;
62631;PMS5003;48703;51.248;-0.546;2023-05-07T15:26:36;5.64;5.33;
62631;PMS5003;48703;51.248;-0.546;2023-05-07T15:29:38;4.66;4.66;
62631;PMS5003;48703;51.248;-0.546;2023-05-07T15:32:39;5.31;4.61;
62631;PMS5003;48703;51.248;-0.546;2023-05-07T15:35:40;4.41;4.41;
62631;PMS5003;48703;51.248;-0.546;2023-05-07T15:38:42;7.17;7.17;
62631;PMS5003;48703;51.248;-0.546;2023-05-07T15:41:43;5.56;4.71;
62631;PMS5003;48703;51.248;-0.546;2023-05-07T15:44:45;4.71;4.39;
62631;PMS5003;48703;51.248;-0.546;2023-05-07T15:47:46;4.23;4.23;
62631;PMS5003;48703;51.248;-0.546;2023-05-07T15:50:48;3.36;3.36;
62631;PMS5003;48703;51.248;-0.546;2023-05-07T15:53:49;3.87;3.74;
62631;PMS5003;48703;51.248;-0.546;2023-05-07T15:56:50;4.19;3.46;
62631;PMS5003;48703;51.248;-0.546;2023-05-07T15:59:52;4.14;3.11;
62631;PMS5003;48703;51.248;-0.546;2023-05-07T16:02:53;4.07;4.07;
62631;PMS5003;48703;51.248;-0.546;2023-05-07T16:05:55;3.91;3.40;
62631;PMS5003;48703;51.248;-0.546;2023-05-07T16:08:56;3.30;3.30;
62631;PMS5003;48703;51.248;-0.546;2023-05-07T16:11:58;4.39;3.87;
62631;PMS5003;48703;51.248;-0.546;2023-05-07T16:14:59;3.59;3.24;
62631;PMS5003;48703;51.248;-0.546;2023-05-07T16:18:00;3.40;3.33;
62631;PMS5003;48703;51.248;-0.546;2023-05-07T16:21:02;2.83;2.83;
62631;PMS5003;48703;51.248;-0.546;2023-05-07T16:24:03;3.94;3.80;
62631;PMS5003;48703;51.248;-0.546;2023-05-07T16:27:05;3.51;3.51;
62631;PMS5003;48703;51.248;-0.546;2023-05-07T16:30:06;4.21;4.21;
62631;PMS5003;48703;51.248;-0.546;2023-05-07T16:33:07;4.00;3.10;
62631;PMS5003;48703;51.248;-0.546;2023-05-07T16:36:09;3.59;3.59;
62631;PMS5003;48703;51.248;-0.546;2023-05-07T16:39:10;4.53;4.19;
62631;PMS5003;48703;51.248;-0.546;2023-05-07T16:42:11;5.16;5.16;
62631;PMS5003;48703;51.248;-0.546;2023-05-07T16:45:13;4.46;4.06;
62631;PMS5003;48703;51.248;-0.546;2023-05-07T16:48:14;5.49;4.57;
62631;PMS5003;48703;51.248;-0.546;2023-05-07T16:51:15;4.16;4.16;
62631;PMS5003;48703;51.248;-0.546;2023-05-07T16:54:17;3.03;3.03;
62631;PMS5003;48703;51.248;-0.546;2023-05-07T16:57:18;4.53;4.46;
62631;PMS5003;48703;51.248;-0.546;2023-05-07T17:00:20;4.10;4.10;
62631;PMS5003;48703;51.248;-0.546;2023-05-07T17:03:21;4.43;4.43;
62631;PMS5003;48703;51.248;-0.546;2023-05-07T17:06:22;4.66;4.66;
62631;PMS5003;48703;51.248;-0.546;2023-05-07T17:09:24;4.57;3.86;
62631;PMS5003;48703;51.248;-0.546;2023-05-07T17:12:25;4.63;3.96;
62631;PMS5003;48703;51.248;-0.546;2023-05-07T17:15:27;5.60;4.89;
62631;PMS5003;48703;51.248;-0.546;2023-05-07T17:18:28;5.00;5.00;
62631;PMS5003;48703;51.248;-0.546;2023-05-07T17:21:29;4.10;3.80;
62631;PMS5003;48703;51.248;-0.546;2023-05-07T17:24:31;3.79;3.79;
62631;PMS5003;48703;51.248;-0.546;2023-05-07T17:27:32;4.50;4.39;
62631;PMS5003;48703;51.248;-0.546;2023-05-07T17:30:33;4.56;4.10;
62631;PMS5003;48703;51.248;-0.546;2023-05-07T17:33:35;4.80;3.80;
62631;PMS5003;48703;51.248;-0.546;2023-05-07T17:36:36;4.73;4.33;
62631;PMS5003;48703;51.248;-0.546;2023-05-07T17:39:38;5.17;4.76;
62631;PMS5003;48703;51.248;-0.546;2023-05-07T17:42:39;5.97;5.97;
62631;PMS5003;48703;51.248;-0.546;2023-05-07T17:45:40;5.36;5.36;
62631;PMS5003;48703;51.248;-0.546;2023-05-07T17:48:42;7.74;6.69;
62631;PMS5003;48703;51.248;-0.546;2023-05-07T17:51:43;7.76;7.57;
62631;PMS5003;48703;51.248;-0.546;2023-05-07T17:54:45;9.11;9.11;
62631;PMS5003;48703;51.248;-0.546;2023-05-07T17:57:47;9.73;8.16;
62631;PMS5003;48703;51.248;-0.546;2023-05-07T18:00:48;7.54;6.86;
62631;PMS5003;48703;51.248;-0.546;2023-05-07T18:03:49;9.00;8.21;
62631;PMS5003;48703;51.248;-0.546;2023-05-07T18:06:51;8.83;7.64;
62631;PMS5003;48703;51.248;-0.546;2023-05-07T18:09:52;7.34;7.34;
62631;PMS5003;48703;51.248;-0.546;2023-05-07T18:12:54;7.91;7.40;